sensor_id;sensor_type;location;lat;lon;timestamp;P1;durP1;ratioP1;P2;durP2;ratioP2
49041;SDS011;34859;51.608;11.462;2024-03-29T00:01:58;1.98;;;1.20;;
49041;SDS011;34859;51.608;11.462;2024-03-29T00:04:44;2.88;;;1.10;;
49041;SDS011;34859;51.608;11.462;2024-03-29T00:07:30;1.83;;;1.17;;
49041;SDS011;34859;51.608;11.462;2024-03-29T00:10:16;2.97;;;1.52;;
49041;SDS011;34859;51.608;11.462;2024-03-29T00:13:01;4.63;;;1.33;;
49041;SDS011;34859;51.608;11.462;2024-03-29T00:15:48;3.17;;;1.67;;
49041;SDS011;34859;51.608;11.462;2024-03-29T00:18:33;4.72;;;1.90;;
49041;SDS011;34859;51.608;11.462;2024-03-29T00:21:19;2.97;;;1.65;;
49041;SDS011;34859;51.608;11.462;2024-03-29T00:24:05;3.47;;;1.23;;
49041;SDS011;34859;51.608;11.462;2024-03-29T00:26:51;3.97;;;1.73;;
49041;SDS011;34859;51.608;11.462;2024-03-29T00:29:37;2.00;;;1.58;;
49041;SDS011;34859;51.608;11.462;2024-03-29T00:32:23;3.08;;;1.38;;
49041;SDS011;34859;51.608;11.462;2024-03-29T00:35:10;2.45;;;1.20;;
49041;SDS011;34859;51.608;11.462;2024-03-29T00:37:56;4.75;;;1.70;;
49041;SDS011;34859;51.608;11.462;2024-03-29T00:40:42;1.70;;;1.35;;
49041;SDS011;34859;51.608;11.462;2024-03-29T00:43:28;4.05;;;2.08;;
49041;SDS011;34859;51.608;11.462;2024-03-29T00:46:14;5.13;;;1.70;;
49041;SDS011;34859;51.608;11.462;2024-03-29T00:48:59;2.28;;;1.45;;
49041;SDS011;34859;51.608;11.462;2024-03-29T00:51:45;2.90;;;1.58;;
49041;SDS011;34859;51.608;11.462;2024-03-29T00:54:31;3.63;;;1.23;;
49041;SDS011;34859;51.608;11.462;2024-03-29T00:57:17;2.67;;;1.95;;
49041;SDS011;34859;51.608;11.462;2024-03-29T01:00:03;4.30;;;1.80;;
49041;SDS011;34859;51.608;11.462;2024-03-29T01:02:50;2.35;;;1.60;;
49041;SDS011;34859;51.608;11.462;2024-03-29T01:05:36;2.53;;;1.30;;
49041;SDS011;34859;51.608;11.462;2024-03-29T01:08:23;3.60;;;1.05;;
49041;SDS011;34859;51.608;11.462;2024-03-29T01:11:09;3.25;;;1.20;;
49041;SDS011;34859;51.608;11.462;2024-03-29T01:13:55;2.65;;;1.63;;
49041;SDS011;34859;51.608;11.462;2024-03-29T01:16:41;3.15;;;1.55;;
49041;SDS011;34859;51.608;11.462;2024-03-29T01:19:27;5.28;;;1.73;;
49041;SDS011;34859;51.608;11.462;2024-03-29T01:22:13;3.90;;;1.42;;
49041;SDS011;34859;51.608;11.462;2024-03-29T01:24:59;3.75;;;1.83;;
49041;SDS011;34859;51.608;11.462;2024-03-29T01:27:45;4.25;;;1.65;;
49041;SDS011;34859;51.608;11.462;2024-03-29T01:30:31;3.28;;;1.80;;
49041;SDS011;34859;51.608;11.462;2024-03-29T01:33:18;2.13;;;1.67;;
49041;SDS011;34859;51.608;11.462;2024-03-29T01:36:04;6.28;;;3.15;;
49041;SDS011;34859;51.608;11.462;2024-03-29T01:38:50;4.32;;;2.08;;
49041;SDS011;34859;51.608;11.462;2024-03-29T01:41:39;3.95;;;2.45;;
49041;SDS011;34859;51.608;11.462;2024-03-29T01:44:25;4.97;;;2.25;;
49041;SDS011;34859;51.608;11.462;2024-03-29T01:47:11;7.97;;;2.13;;
49041;SDS011;34859;51.608;11.462;2024-03-29T01:49:58;2.55;;;1.80;;
49041;SDS011;34859;51.608;11.462;2024-03-29T01:52:44;4.97;;;1.88;;
49041;SDS011;34859;51.608;11.462;2024-03-29T01:55:31;6.97;;;1.80;;
49041;SDS011;34859;51.608;11.462;2024-03-29T01:58:17;3.33;;;1.73;;
49041;SDS011;34859;51.608;11.462;2024-03-29T02:01:05;3.45;;;1.83;;
49041;SDS011;34859;51.608;11.462;2024-03-29T02:03:53;2.97;;;2.08;;
49041;SDS011;34859;51.608;11.462;2024-03-29T02:06:40;2.35;;;1.65;;
49041;SDS011;34859;51.608;11.462;2024-03-29T02:09:27;4.70;;;1.90;;
49041;SDS011;34859;51.608;11.462;2024-03-29T02:12:13;5.47;;;2.05;;
49041;SDS011;34859;51.608;11.462;2024-03-29T02:14:59;4.47;;;1.80;;
49041;SDS011;34859;51.608;11.462;2024-03-29T02:17:47;2.22;;;1.77;;
49041;SDS011;34859;51.608;11.462;2024-03-29T02:20:33;5.82;;;2.03;;
49041;SDS011;34859;51.608;11.462;2024-03-29T02:23:26;5.03;;;1.88;;
49041;SDS011;34859;51.608;11.462;2024-03-29T02:26:16;3.33;;;1.70;;
49041;SDS011;34859;51.608;11.462;2024-03-29T02:29:02;2.28;;;1.55;;
49041;SDS011;34859;51.608;11.462;2024-03-29T02:31:48;2.60;;;1.55;;
49041;SDS011;34859;51.608;11.462;2024-03-29T02:34:34;1.65;;;1.17;;
49041;SDS011;34859;51.608;11.462;2024-03-29T02:37:20;3.90;;;2.17;;
49041;SDS011;34859;51.608;11.462;2024-03-29T02:40:06;4.75;;;1.88;;
49041;SDS011;34859;51.608;11.462;2024-03-29T02:42:54;3.50;;;1.70;;
49041;SDS011;34859;51.608;11.462;2024-03-29T02:45:40;4.45;;;2.15;;
49041;SDS011;34859;51.608;11.462;2024-03-29T02:48:25;4.20;;;2.08;;
49041;SDS011;34859;51.608;11.462;2024-03-29T02:51:11;3.58;;;2.58;;
49041;SDS011;34859;51.608;11.462;2024-03-29T02:53:57;5.82;;;2.40;;
49041;SDS011;34859;51.608;11.462;2024-03-29T02:56:43;5.32;;;2.45;;
49041;SDS011;34859;51.608;11.462;2024-03-29T02:59:29;3.55;;;1.88;;
49041;SDS011;34859;51.608;11.462;2024-03-29T03:02:15;2.13;;;1.48;;
49041;SDS011;34859;51.608;11.462;2024-03-29T03:05:01;10.85;;;1.70;;
49041;SDS011;34859;51.608;11.462;2024-03-29T03:07:47;4.45;;;1.52;;
49041;SDS011;34859;51.608;11.462;2024-03-29T03:10:51;3.10;;;1.83;;
49041;SDS011;34859;51.608;11.462;2024-03-29T03:13:46;3.03;;;1.42;;
49041;SDS011;34859;51.608;11.462;2024-03-29T03:16:32;1.73;;;1.10;;
49041;SDS011;34859;51.608;11.462;2024-03-29T03:19:18;2.45;;;1.20;;
49041;SDS011;34859;51.608;11.462;2024-03-29T03:22:04;2.17;;;1.33;;
49041;SDS011;34859;51.608;11.462;2024-03-29T03:24:50;6.53;;;1.38;;
49041;SDS011;34859;51.608;11.462;2024-03-29T03:27:36;2.33;;;1.15;;
49041;SDS011;34859;51.608;11.462;2024-03-29T03:30:21;5.18;;;1.38;;
49041;SDS011;34859;51.608;11.462;2024-03-29T03:33:07;3.55;;;1.67;;
49041;SDS011;34859;51.608;11.462;2024-03-29T03:35:53;3.08;;;1.60;;
49041;SDS011;34859;51.608;11.462;2024-03-29T03:38:39;3.85;;;1.55;;
49041;SDS011;34859;51.608;11.462;2024-03-29T03:41:26;3.75;;;1.30;;
49041;SDS011;34859;51.608;11.462;2024-03-29T03:44:12;3.00;;;1.90;;
49041;SDS011;34859;51.608;11.462;2024-03-29T03:46:58;2.58;;;1.92;;
49041;SDS011;34859;51.608;11.462;2024-03-29T03:49:44;4.45;;;2.40;;
49041;SDS011;34859;51.608;11.462;2024-03-29T03:52:29;4.68;;;2.53;;
49041;SDS011;34859;51.608;11.462;2024-03-29T03:55:16;4.50;;;2.25;;
49041;SDS011;34859;51.608;11.462;2024-03-29T03:58:02;4.05;;;2.10;;
49041;SDS011;34859;51.608;11.462;2024-03-29T04:00:48;3.95;;;2.40;;
49041;SDS011;34859;51.608;11.462;2024-03-29T04:03:34;3.05;;;2.13;;
49041;SDS011;34859;51.608;11.462;2024-03-29T04:06:20;2.67;;;1.70;;
49041;SDS011;34859;51.608;11.462;2024-03-29T04:09:06;4.25;;;2.58;;
49041;SDS011;34859;51.608;11.462;2024-03-29T04:11:52;4.43;;;2.28;;
49041;SDS011;34859;51.608;11.462;2024-03-29T04:14:38;6.22;;;2.33;;
49041;SDS011;34859;51.608;11.462;2024-03-29T04:17:24;4.40;;;2.25;;
49041;SDS011;34859;51.608;11.462;2024-03-29T04:20:10;5.43;;;2.03;;
49041;SDS011;34859;51.608;11.462;2024-03-29T04:22:56;5.72;;;2.08;;
49041;SDS011;34859;51.608;11.462;2024-03-29T04:25:50;4.60;;;2.25;;
49041;SDS011;34859;51.608;11.462;2024-03-29T04:36:54;3.67;;;1.73;;
49041;SDS011;34859;51.608;11.462;2024-03-29T04:39:42;7.95;;;1.60;;
49041;SDS011;34859;51.608;11.462;2024-03-29T04:42:28;3.67;;;1.70;;
49041;SDS011;34859;51.608;11.462;2024-03-29T04:45:14;2.08;;;1.15;;
49041;SDS011;34859;51.608;11.462;2024-03-29T04:48:00;3.67;;;1.52;;
49041;SDS011;34859;51.608;11.462;2024-03-29T04:50:46;2.58;;;0.95;;
49041;SDS011;34859;51.608;11.462;2024-03-29T04:53:32;1.40;;;0.95;;
49041;SDS011;34859;51.608;11.462;2024-03-29T04:56:18;2.83;;;1.08;;
49041;SDS011;34859;51.608;11.462;2024-03-29T04:59:04;2.08;;;0.82;;
49041;SDS011;34859;51.608;11.462;2024-03-29T05:01:50;5.85;;;1.35;;
49041;SDS011;34859;51.608;11.462;2024-03-29T05:04:36;2.25;;;0.98;;
49041;SDS011;34859;51.608;11.462;2024-03-29T05:07:22;3.15;;;1.00;;
49041;SDS011;34859;51.608;11.462;2024-03-29T05:10:08;4.25;;;1.00;;
49041;SDS011;34859;51.608;11.462;2024-03-29T05:12:57;2.35;;;1.23;;
49041;SDS011;34859;51.608;11.462;2024-03-29T05:15:43;4.38;;;1.60;;
49041;SDS011;34859;51.608;11.462;2024-03-29T05:18:29;1.63;;;0.80;;
49041;SDS011;34859;51.608;11.462;2024-03-29T05:21:15;2.05;;;1.05;;
49041;SDS011;34859;51.608;11.462;2024-03-29T05:24:01;2.70;;;1.23;;
49041;SDS011;34859;51.608;11.462;2024-03-29T05:26:47;2.45;;;1.00;;
49041;SDS011;34859;51.608;11.462;2024-03-29T05:29:32;4.07;;;1.00;;
49041;SDS011;34859;51.608;11.462;2024-03-29T05:32:18;1.52;;;0.95;;
49041;SDS011;34859;51.608;11.462;2024-03-29T05:35:04;3.17;;;0.73;;
49041;SDS011;34859;51.608;11.462;2024-03-29T05:37:50;2.25;;;0.85;;
49041;SDS011;34859;51.608;11.462;2024-03-29T05:40:39;4.47;;;0.88;;
49041;SDS011;34859;51.608;11.462;2024-03-29T05:43:25;1.92;;;1.00;;
49041;SDS011;34859;51.608;11.462;2024-03-29T05:46:10;3.78;;;0.73;;
49041;SDS011;34859;51.608;11.462;2024-03-29T05:48:56;3.00;;;0.88;;
49041;SDS011;34859;51.608;11.462;2024-03-29T05:51:42;1.75;;;0.60;;
49041;SDS011;34859;51.608;11.462;2024-03-29T05:54:28;4.28;;;0.77;;
49041;SDS011;34859;51.608;11.462;2024-03-29T05:57:14;3.47;;;0.98;;
49041;SDS011;34859;51.608;11.462;2024-03-29T06:00:01;1.77;;;0.60;;
49041;SDS011;34859;51.608;11.462;2024-03-29T06:02:48;3.72;;;0.80;;
49041;SDS011;34859;51.608;11.462;2024-03-29T06:05:34;3.70;;;0.90;;
49041;SDS011;34859;51.608;11.462;2024-03-29T06:08:20;2.72;;;0.80;;
49041;SDS011;34859;51.608;11.462;2024-03-29T06:11:08;3.88;;;0.80;;
49041;SDS011;34859;51.608;11.462;2024-03-29T06:13:54;4.40;;;0.60;;
49041;SDS011;34859;51.608;11.462;2024-03-29T06:16:43;1.65;;;0.60;;
49041;SDS011;34859;51.608;11.462;2024-03-29T06:19:49;3.75;;;0.82;;
49041;SDS011;34859;51.608;11.462;2024-03-29T06:22:44;1.40;;;0.63;;
49041;SDS011;34859;51.608;11.462;2024-03-29T06:25:31;1.85;;;0.85;;
49041;SDS011;34859;51.608;11.462;2024-03-29T06:28:19;3.38;;;0.93;;
49041;SDS011;34859;51.608;11.462;2024-03-29T06:31:06;2.88;;;0.80;;
49041;SDS011;34859;51.608;11.462;2024-03-29T06:33:53;2.22;;;0.88;;
49041;SDS011;34859;51.608;11.462;2024-03-29T06:36:40;1.98;;;0.85;;
49041;SDS011;34859;51.608;11.462;2024-03-29T06:39:27;1.88;;;0.75;;
49041;SDS011;34859;51.608;11.462;2024-03-29T06:42:15;3.13;;;0.60;;
49041;SDS011;34859;51.608;11.462;2024-03-29T06:45:03;1.00;;;0.70;;
49041;SDS011;34859;51.608;11.462;2024-03-29T06:47:51;1.42;;;0.98;;
49041;SDS011;34859;51.608;11.462;2024-03-29T06:50:39;3.03;;;0.90;;
49041;SDS011;34859;51.608;11.462;2024-03-29T06:53:26;1.50;;;1.10;;
49041;SDS011;34859;51.608;11.462;2024-03-29T06:56:14;1.95;;;1.25;;
49041;SDS011;34859;51.608;11.462;2024-03-29T06:59:02;1.90;;;0.90;;
49041;SDS011;34859;51.608;11.462;2024-03-29T07:01:49;5.25;;;1.00;;
49041;SDS011;34859;51.608;11.462;2024-03-29T07:04:38;4.45;;;0.95;;
49041;SDS011;34859;51.608;11.462;2024-03-29T07:07:25;2.63;;;1.13;;
49041;SDS011;34859;51.608;11.462;2024-03-29T07:10:12;1.98;;;0.80;;
49041;SDS011;34859;51.608;11.462;2024-03-29T07:12:59;4.40;;;1.17;;
49041;SDS011;34859;51.608;11.462;2024-03-29T07:15:50;0.98;;;0.63;;
49041;SDS011;34859;51.608;11.462;2024-03-29T07:18:38;3.65;;;1.77;;
49041;SDS011;34859;51.608;11.462;2024-03-29T07:21:25;2.05;;;1.35;;
49041;SDS011;34859;51.608;11.462;2024-03-29T07:24:12;1.45;;;0.95;;
49041;SDS011;34859;51.608;11.462;2024-03-29T07:26:59;1.73;;;0.80;;
49041;SDS011;34859;51.608;11.462;2024-03-29T07:29:46;5.32;;;1.27;;
49041;SDS011;34859;51.608;11.462;2024-03-29T07:32:33;2.63;;;1.00;;
49041;SDS011;34859;51.608;11.462;2024-03-29T07:35:21;1.63;;;0.82;;
49041;SDS011;34859;51.608;11.462;2024-03-29T07:38:09;3.13;;;1.10;;
49041;SDS011;34859;51.608;11.462;2024-03-29T07:40:57;2.08;;;1.02;;
49041;SDS011;34859;51.608;11.462;2024-03-29T07:43:51;2.42;;;1.33;;
49041;SDS011;34859;51.608;11.462;2024-03-29T07:46:44;1.65;;;1.40;;
49041;SDS011;34859;51.608;11.462;2024-03-29T07:49:33;2.67;;;1.95;;
49041;SDS011;34859;51.608;11.462;2024-03-29T07:52:20;2.33;;;1.35;;
49041;SDS011;34859;51.608;11.462;2024-03-29T07:55:08;1.60;;;1.25;;
49041;SDS011;34859;51.608;11.462;2024-03-29T07:57:55;3.30;;;0.80;;
49041;SDS011;34859;51.608;11.462;2024-03-29T08:00:43;2.15;;;0.50;;
49041;SDS011;34859;51.608;11.462;2024-03-29T08:03:30;2.33;;;0.88;;
49041;SDS011;34859;51.608;11.462;2024-03-29T08:06:19;1.70;;;0.50;;
49041;SDS011;34859;51.608;11.462;2024-03-29T08:09:08;1.58;;;0.88;;
49041;SDS011;34859;51.608;11.462;2024-03-29T08:11:59;2.03;;;1.00;;
49041;SDS011;34859;51.608;11.462;2024-03-29T08:14:46;3.03;;;0.60;;
49041;SDS011;34859;51.608;11.462;2024-03-29T08:17:34;2.10;;;0.60;;
49041;SDS011;34859;51.608;11.462;2024-03-29T08:20:22;1.65;;;0.50;;
49041;SDS011;34859;51.608;11.462;2024-03-29T08:23:14;4.03;;;0.80;;
49041;SDS011;34859;51.608;11.462;2024-03-29T08:26:01;1.52;;;0.77;;
49041;SDS011;34859;51.608;11.462;2024-03-29T08:28:48;1.15;;;0.60;;
49041;SDS011;34859;51.608;11.462;2024-03-29T08:31:35;1.38;;;0.80;;
49041;SDS011;34859;51.608;11.462;2024-03-29T08:34:22;2.05;;;1.10;;
49041;SDS011;34859;51.608;11.462;2024-03-29T08:37:12;2.25;;;0.50;;
49041;SDS011;34859;51.608;11.462;2024-03-29T08:39:59;2.35;;;1.02;;
49041;SDS011;34859;51.608;11.462;2024-03-29T08:42:47;2.53;;;0.88;;
49041;SDS011;34859;51.608;11.462;2024-03-29T08:45:34;2.75;;;1.08;;
49041;SDS011;34859;51.608;11.462;2024-03-29T08:48:28;0.98;;;0.57;;
49041;SDS011;34859;51.608;11.462;2024-03-29T08:51:16;0.85;;;0.60;;
49041;SDS011;34859;51.608;11.462;2024-03-29T08:54:03;2.38;;;0.70;;
49041;SDS011;34859;51.608;11.462;2024-03-29T08:56:50;3.25;;;0.90;;
49041;SDS011;34859;51.608;11.462;2024-03-29T08:59:37;2.47;;;1.00;;
49041;SDS011;34859;51.608;11.462;2024-03-29T09:02:23;2.17;;;0.80;;
49041;SDS011;34859;51.608;11.462;2024-03-29T09:05:11;0.50;;;0.50;;
49041;SDS011;34859;51.608;11.462;2024-03-29T09:07:58;0.95;;;0.65;;
49041;SDS011;34859;51.608;11.462;2024-03-29T09:10:46;4.85;;;0.57;;
49041;SDS011;34859;51.608;11.462;2024-03-29T09:13:34;2.15;;;0.70;;
49041;SDS011;34859;51.608;11.462;2024-03-29T09:16:21;2.30;;;0.45;;
49041;SDS011;34859;51.608;11.462;2024-03-29T09:19:07;1.95;;;0.65;;
49041;SDS011;34859;51.608;11.462;2024-03-29T09:22:00;1.90;;;0.63;;
49041;SDS011;34859;51.608;11.462;2024-03-29T09:25:07;1.67;;;0.30;;
49041;SDS011;34859;51.608;11.462;2024-03-29T09:27:56;0.90;;;0.50;;
49041;SDS011;34859;51.608;11.462;2024-03-29T09:30:44;1.23;;;1.13;;
49041;SDS011;34859;51.608;11.462;2024-03-29T09:33:33;1.63;;;1.23;;
49041;SDS011;34859;51.608;11.462;2024-03-29T09:36:21;1.65;;;0.60;;
49041;SDS011;34859;51.608;11.462;2024-03-29T09:39:10;2.15;;;1.20;;
49041;SDS011;34859;51.608;11.462;2024-03-29T09:41:57;2.03;;;1.08;;
49041;SDS011;34859;51.608;11.462;2024-03-29T09:44:47;0.75;;;0.30;;
49041;SDS011;34859;51.608;11.462;2024-03-29T09:47:37;0.73;;;0.50;;
49041;SDS011;34859;51.608;11.462;2024-03-29T09:50:30;1.10;;;0.35;;
49041;SDS011;34859;51.608;11.462;2024-03-29T09:53:25;0.68;;;0.40;;
49041;SDS011;34859;51.608;11.462;2024-03-29T09:56:12;0.77;;;0.40;;
49041;SDS011;34859;51.608;11.462;2024-03-29T09:58:58;0.93;;;0.82;;
49041;SDS011;34859;51.608;11.462;2024-03-29T10:01:46;0.63;;;0.32;;
49041;SDS011;34859;51.608;11.462;2024-03-29T10:04:35;0.30;;;0.30;;
49041;SDS011;34859;51.608;11.462;2024-03-29T10:07:23;0.38;;;0.38;;
49041;SDS011;34859;51.608;11.462;2024-03-29T10:10:11;1.95;;;0.65;;
49041;SDS011;34859;51.608;11.462;2024-03-29T10:12:59;1.23;;;0.90;;
49041;SDS011;34859;51.608;11.462;2024-03-29T10:15:46;0.60;;;0.40;;
49041;SDS011;34859;51.608;11.462;2024-03-29T10:18:35;1.60;;;0.40;;
49041;SDS011;34859;51.608;11.462;2024-03-29T10:21:25;1.40;;;0.93;;
49041;SDS011;34859;51.608;11.462;2024-03-29T10:24:14;0.70;;;0.65;;
49041;SDS011;34859;51.608;11.462;2024-03-29T10:27:02;0.90;;;0.50;;
49041;SDS011;34859;51.608;11.462;2024-03-29T11:41:05;2.05;;;1.20;;
49041;SDS011;34859;51.608;11.462;2024-03-29T11:43:51;1.58;;;1.35;;
49041;SDS011;34859;51.608;11.462;2024-03-29T11:46:37;0.77;;;0.77;;
49041;SDS011;34859;51.608;11.462;2024-03-29T11:49:25;1.30;;;1.10;;
49041;SDS011;34859;51.608;11.462;2024-03-29T11:52:11;3.28;;;1.10;;
49041;SDS011;34859;51.608;11.462;2024-03-29T11:54:57;1.08;;;0.80;;
49041;SDS011;34859;51.608;11.462;2024-03-29T11:57:44;1.58;;;0.90;;
49041;SDS011;34859;51.608;11.462;2024-03-29T12:00:30;0.88;;;0.70;;
49041;SDS011;34859;51.608;11.462;2024-03-29T12:03:16;0.80;;;0.80;;
49041;SDS011;34859;51.608;11.462;2024-03-29T12:06:03;3.10;;;0.90;;
49041;SDS011;34859;51.608;11.462;2024-03-29T12:08:51;0.82;;;0.70;;
49041;SDS011;34859;51.608;11.462;2024-03-29T12:11:38;1.15;;;0.75;;
49041;SDS011;34859;51.608;11.462;2024-03-29T12:14:24;4.47;;;0.60;;
49041;SDS011;34859;51.608;11.462;2024-03-29T12:17:12;1.30;;;0.70;;
49041;SDS011;34859;51.608;11.462;2024-03-29T12:19:58;4.07;;;0.63;;
49041;SDS011;34859;51.608;11.462;2024-03-29T12:22:51;0.63;;;0.50;;
49041;SDS011;34859;51.608;11.462;2024-03-29T12:25:37;0.57;;;0.50;;
49041;SDS011;34859;51.608;11.462;2024-03-29T12:28:24;1.02;;;0.50;;
49041;SDS011;34859;51.608;11.462;2024-03-29T12:31:11;5.63;;;3.65;;
49041;SDS011;34859;51.608;11.462;2024-03-29T12:33:57;1.88;;;0.38;;
49041;SDS011;34859;51.608;11.462;2024-03-29T12:36:46;0.85;;;0.50;;
49041;SDS011;34859;51.608;11.462;2024-03-29T12:39:32;0.38;;;0.30;;
49041;SDS011;34859;51.608;11.462;2024-03-29T12:42:18;1.73;;;0.60;;
49041;SDS011;34859;51.608;11.462;2024-03-29T12:45:05;0.90;;;0.43;;
49041;SDS011;34859;51.608;11.462;2024-03-29T12:47:52;0.98;;;0.60;;
49041;SDS011;34859;51.608;11.462;2024-03-29T12:50:39;2.08;;;0.70;;
49041;SDS011;34859;51.608;11.462;2024-03-29T12:53:27;2.35;;;0.50;;
49041;SDS011;34859;51.608;11.462;2024-03-29T12:56:13;0.75;;;0.60;;
49041;SDS011;34859;51.608;11.462;2024-03-29T18:17:13;2.10;;;2.00;;
49041;SDS011;34859;51.608;11.462;2024-03-29T18:19:59;2.45;;;2.25;;
49041;SDS011;34859;51.608;11.462;2024-03-29T18:22:45;4.90;;;4.53;;
49041;SDS011;34859;51.608;11.462;2024-03-29T18:25:32;5.43;;;5.03;;
49041;SDS011;34859;51.608;11.462;2024-03-29T20:04:54;6.30;;;5.90;;
49041;SDS011;34859;51.608;11.462;2024-03-29T20:07:41;9.65;;;7.93;;
49041;SDS011;34859;51.608;11.462;2024-03-29T20:10:27;8.80;;;8.00;;
49041;SDS011;34859;51.608;11.462;2024-03-29T20:13:14;8.70;;;7.93;;
49041;SDS011;34859;51.608;11.462;2024-03-29T20:16:00;11.88;;;10.68;;
49041;SDS011;34859;51.608;11.462;2024-03-29T20:18:47;20.48;;;14.40;;
49041;SDS011;34859;51.608;11.462;2024-03-29T20:21:33;13.73;;;11.25;;
49041;SDS011;34859;51.608;11.462;2024-03-29T20:24:20;6.30;;;5.70;;
49041;SDS011;34859;51.608;11.462;2024-03-29T20:27:12;4.53;;;4.22;;
49041;SDS011;34859;51.608;11.462;2024-03-29T20:29:59;5.00;;;4.60;;
49041;SDS011;34859;51.608;11.462;2024-03-29T20:32:46;6.22;;;4.88;;
49041;SDS011;34859;51.608;11.462;2024-03-29T20:35:39;7.15;;;4.13;;
49041;SDS011;34859;51.608;11.462;2024-03-29T20:38:26;3.95;;;3.05;;
49041;SDS011;34859;51.608;11.462;2024-03-29T20:41:12;3.33;;;3.05;;
49041;SDS011;34859;51.608;11.462;2024-03-29T20:44:00;6.43;;;4.07;;
49041;SDS011;34859;51.608;11.462;2024-03-29T20:46:48;6.07;;;3.50;;
49041;SDS011;34859;51.608;11.462;2024-03-29T20:49:35;4.10;;;3.70;;
49041;SDS011;34859;51.608;11.462;2024-03-29T20:52:21;3.78;;;3.47;;
49041;SDS011;34859;51.608;11.462;2024-03-29T20:55:08;4.35;;;3.28;;
49041;SDS011;34859;51.608;11.462;2024-03-29T20:57:58;4.15;;;3.40;;
49041;SDS011;34859;51.608;11.462;2024-03-29T21:00:45;5.70;;;3.42;;
49041;SDS011;34859;51.608;11.462;2024-03-29T21:03:36;2.90;;;2.55;;
49041;SDS011;34859;51.608;11.462;2024-03-29T21:10:03;3.58;;;3.30;;
49041;SDS011;34859;51.608;11.462;2024-03-29T21:13:40;3.88;;;3.58;;
49041;SDS011;34859;51.608;11.462;2024-03-29T21:17:23;4.65;;;4.25;;
49041;SDS011;34859;51.608;11.462;2024-03-29T21:20:46;3.88;;;3.60;;
49041;SDS011;34859;51.608;11.462;2024-03-29T21:24:25;7.85;;;3.25;;
49041;SDS011;34859;51.608;11.462;2024-03-29T21:27:58;5.15;;;4.65;;
49041;SDS011;34859;51.608;11.462;2024-03-29T21:39:32;5.80;;;4.30;;
49041;SDS011;34859;51.608;11.462;2024-03-29T21:43:38;7.47;;;5.60;;
49041;SDS011;34859;51.608;11.462;2024-03-29T21:47:06;7.72;;;5.95;;
49041;SDS011;34859;51.608;11.462;2024-03-29T21:51:18;9.50;;;6.40;;
49041;SDS011;34859;51.608;11.462;2024-03-29T22:06:56;5.57;;;4.45;;
49041;SDS011;34859;51.608;11.462;2024-03-29T22:10:33;10.10;;;5.32;;
49041;SDS011;34859;51.608;11.462;2024-03-29T22:21:58;5.38;;;4.88;;
49041;SDS011;34859;51.608;11.462;2024-03-29T22:29:25;6.68;;;5.03;;
49041;SDS011;34859;51.608;11.462;2024-03-29T22:33:10;4.45;;;4.05;;
49041;SDS011;34859;51.608;11.462;2024-03-29T22:44:27;6.82;;;6.13;;
49041;SDS011;34859;51.608;11.462;2024-03-29T22:48:15;9.57;;;5.93;;
49041;SDS011;34859;51.608;11.462;2024-03-29T22:51:39;5.97;;;5.43;;
49041;SDS011;34859;51.608;11.462;2024-03-29T22:59:32;7.60;;;5.25;;
49041;SDS011;34859;51.608;11.462;2024-03-29T23:03:15;8.35;;;5.43;;
49041;SDS011;34859;51.608;11.462;2024-03-29T23:06:40;12.15;;;10.98;;
49041;SDS011;34859;51.608;11.462;2024-03-29T23:10:08;19.30;;;15.23;;
49041;SDS011;34859;51.608;11.462;2024-03-29T23:28:49;7.20;;;6.57;;
49041;SDS011;34859;51.608;11.462;2024-03-29T23:48:08;6.07;;;5.47;;
49041;SDS011;34859;51.608;11.462;2024-03-29T23:51:52;5.40;;;4.95;;
49041;SDS011;34859;51.608;11.462;2024-03-29T23:55:38;5.10;;;4.68;;
49041;SDS011;34859;51.608;11.462;2024-03-29T23:59:22;5.88;;;5.30;;
